createdAt,value
2019-05-23T00:01:11.619Z,98.70
2019-05-23T00:03:50.557Z,98.90
2019-05-23T00:06:21.449Z,99.00
2019-05-23T00:08:52.539Z,99.10
2019-05-23T00:11:41.994Z,99.20
2019-05-23T00:14:23.258Z,99.20
2019-05-23T00:16:54.766Z,99.10
2019-05-23T00:19:26.716Z,99.10
2019-05-23T00:21:58.784Z,99.20
2019-05-23T00:24:30.692Z,99.30
2019-05-23T00:27:00.975Z,99.50
2019-05-23T00:29:31.372Z,99.50
2019-05-23T00:32:09.774Z,99.30
2019-05-23T00:34:42.259Z,99.50
2019-05-23T00:37:13.858Z,99.50
2019-05-23T00:39:44.454Z,99.60
2019-05-23T00:42:14.844Z,99.70
2019-05-23T00:44:45.601Z,99.60
2019-05-23T00:47:17.103Z,99.70
2019-05-23T00:49:48.254Z,99.70
2019-05-23T00:52:18.566Z,99.60
2019-05-23T00:54:50.118Z,99.60
2019-05-23T00:57:21.227Z,99.50
2019-05-23T00:59:51.825Z,99.60
2019-05-23T01:02:23.201Z,99.60
2019-05-23T01:04:53.764Z,99.50
2019-05-23T01:07:25.870Z,99.60
2019-05-23T01:09:58.029Z,99.60
2019-05-23T01:12:29.619Z,99.80
2019-05-23T01:15:00.048Z,99.80
2019-05-23T01:17:31.274Z,99.70
2019-05-23T01:20:03.469Z,99.90
2019-05-23T01:22:34.241Z,99.90
2019-05-23T01:25:05.465Z,99.90
2019-05-23T01:27:35.798Z,99.90
2019-05-23T01:30:08.684Z,99.90
2019-05-23T01:32:44.382Z,99.90
2019-05-23T01:35:19.290Z,99.90
2019-05-23T01:37:49.672Z,99.90
2019-05-23T01:40:20.838Z,99.90
2019-05-23T01:42:52.434Z,99.90
2019-05-23T01:45:23.837Z,99.90
2019-05-23T01:47:54.166Z,99.90
2019-05-23T01:50:26.111Z,99.90
2019-05-23T01:52:57.938Z,99.90
2019-05-23T01:55:28.333Z,99.90
2019-05-23T01:57:58.850Z,99.90
2019-05-23T02:00:31.437Z,99.90
2019-05-23T02:03:01.839Z,99.90
2019-05-23T02:05:33.234Z,99.90
2019-05-23T02:08:04.030Z,99.90
2019-05-23T02:10:34.375Z,99.90
2019-05-23T02:13:04.806Z,99.90
2019-05-23T02:15:35.388Z,99.90
2019-05-23T02:18:06.374Z,99.90
2019-05-23T02:20:37.185Z,99.90
2019-05-23T02:23:07.959Z,99.90
2019-05-23T02:25:38.648Z,99.90
2019-05-23T02:28:10.470Z,99.90
2019-05-23T02:30:41.191Z,99.90
2019-05-23T02:33:12.410Z,99.90
2019-05-23T02:35:43.227Z,99.90
2019-05-23T02:38:48.107Z,99.90
2019-05-23T02:41:31.622Z,99.90
2019-05-23T02:44:09.011Z,99.90
2019-05-23T02:46:59.453Z,99.90
2019-05-23T02:49:33.743Z,99.90
2019-05-23T02:52:23.845Z,99.90
2019-05-23T02:54:54.835Z,99.90
2019-05-23T02:57:28.376Z,99.90
2019-05-23T03:00:06.999Z,99.90
2019-05-23T03:03:02.428Z,99.90
2019-05-23T03:05:34.804Z,99.90
2019-05-23T03:08:08.133Z,99.90
2019-05-23T03:10:56.863Z,99.90
2019-05-23T03:13:32.374Z,99.90
2019-05-23T03:16:04.421Z,99.90
2019-05-23T03:18:40.133Z,99.90
2019-05-23T03:21:11.466Z,99.90
2019-05-23T03:23:43.363Z,99.90
2019-05-23T03:26:42.377Z,99.90
2019-05-23T03:29:12.688Z,99.90
2019-05-23T03:31:58.690Z,99.90
2019-05-23T03:34:31.310Z,99.90
2019-05-23T03:37:01.840Z,99.90
2019-05-23T03:39:33.331Z,99.90
2019-05-23T03:42:04.235Z,99.90
2019-05-23T03:44:34.625Z,99.90
2019-05-23T03:47:07.386Z,99.90
2019-05-23T03:49:39.385Z,99.90
2019-05-23T03:52:11.301Z,99.90
2019-05-23T03:54:43.634Z,99.90
2019-05-23T03:57:15.045Z,99.90
2019-05-23T03:59:46.437Z,99.90
2019-05-23T04:02:19.047Z,99.90
2019-05-23T04:04:49.482Z,99.90
2019-05-23T04:07:20.186Z,99.90
2019-05-23T04:09:50.492Z,99.90
2019-05-23T04:12:21.053Z,99.90
2019-05-23T04:14:52.074Z,99.90
2019-05-23T04:17:22.647Z,99.90
2019-05-23T04:19:53.233Z,99.90
2019-05-23T04:22:23.825Z,99.90
2019-05-23T04:24:54.214Z,99.90
2019-05-23T04:27:25.334Z,99.90
2019-05-23T04:29:55.745Z,99.90
2019-05-23T04:32:26.058Z,99.90
2019-05-23T04:34:56.469Z,99.90
2019-05-23T04:37:27.329Z,99.90
2019-05-23T04:39:57.854Z,99.90
2019-05-23T04:42:28.215Z,99.90
2019-05-23T04:44:58.559Z,99.90
2019-05-23T04:47:29.062Z,99.90
2019-05-23T04:50:00.450Z,99.90
2019-05-23T04:52:30.866Z,99.90
2019-05-23T04:55:01.559Z,99.90
2019-05-23T04:57:32.525Z,99.90
2019-05-23T05:00:03.043Z,99.90
2019-05-23T05:02:33.512Z,99.90
2019-05-23T05:05:04.181Z,99.90
2019-05-23T05:07:34.926Z,99.90
2019-05-23T05:10:05.485Z,99.90
2019-05-23T05:12:36.385Z,99.90
2019-05-23T05:15:08.168Z,99.90
2019-05-23T05:17:38.752Z,99.90
2019-05-23T05:20:09.230Z,99.90
2019-05-23T05:22:39.920Z,99.90
2019-05-23T05:25:10.737Z,99.90
2019-05-23T05:27:41.145Z,99.90
2019-05-23T05:30:11.865Z,99.90
2019-05-23T05:32:45.220Z,99.90
2019-05-23T05:35:14.795Z,99.90
2019-05-23T05:37:46.121Z,99.90
2019-05-23T05:40:17.230Z,99.90
2019-05-23T05:42:47.621Z,99.90
2019-05-23T05:45:20.243Z,99.90
2019-05-23T05:47:50.616Z,99.90
2019-05-23T05:50:21.039Z,99.90
2019-05-23T05:52:51.552Z,99.90
2019-05-23T05:55:21.990Z,99.90
2019-05-23T05:57:52.385Z,99.90
2019-05-23T06:00:40.222Z,99.90
2019-05-23T06:03:10.808Z,99.90
2019-05-23T06:05:54.918Z,99.90
2019-05-23T06:08:25.596Z,99.90
2019-05-23T06:10:55.884Z,99.90
2019-05-23T06:13:26.349Z,99.90
2019-05-23T06:15:56.824Z,99.90
2019-05-23T06:18:27.849Z,99.90
2019-05-23T06:20:59.342Z,99.90
2019-05-23T06:23:29.867Z,99.90
2019-05-23T06:26:00.178Z,99.90
2019-05-23T06:28:31.707Z,99.90
2019-05-23T06:31:02.418Z,99.90
2019-05-23T06:33:32.974Z,99.90
2019-05-23T06:36:03.330Z,99.90
2019-05-23T06:38:34.046Z,99.90
2019-05-23T06:41:05.788Z,99.90
2019-05-23T06:43:37.482Z,99.90
2019-05-23T06:46:08.186Z,99.90
2019-05-23T06:48:38.630Z,99.90
2019-05-23T06:51:09.151Z,99.90
2019-05-23T06:53:39.524Z,99.90
2019-05-23T06:56:12.148Z,99.90
2019-05-23T06:58:43.049Z,99.90
2019-05-23T07:01:13.535Z,99.90
2019-05-23T07:03:44.211Z,99.90
2019-05-23T07:06:18.249Z,99.90
2019-05-23T07:08:48.587Z,99.90
2019-05-23T07:11:22.091Z,99.90
2019-05-23T07:13:52.518Z,99.90
2019-05-23T07:16:23.141Z,99.90
2019-05-23T07:18:53.578Z,99.90
2019-05-23T07:21:24.074Z,99.90
2019-05-23T07:23:55.043Z,99.90
2019-05-23T07:26:25.383Z,99.90
2019-05-23T07:28:56.243Z,99.90
2019-05-23T07:31:26.759Z,99.90
2019-05-23T07:35:44.446Z,99.90
2019-05-23T07:38:15.142Z,99.90
2019-05-23T07:40:46.547Z,99.90
2019-05-23T07:43:17.309Z,99.90
2019-05-23T07:45:52.890Z,99.80
2019-05-23T07:48:23.684Z,99.70
2019-05-23T07:50:54.000Z,99.70
2019-05-23T07:53:34.119Z,99.90
2019-05-23T07:56:07.941Z,99.60
2019-05-23T07:58:39.924Z,99.90
2019-05-23T08:01:13.425Z,99.40
2019-05-23T08:03:45.310Z,99.40
2019-05-23T08:06:15.638Z,99.50
2019-05-23T08:08:46.122Z,99.10
2019-05-23T08:11:16.418Z,98.70
2019-05-23T08:13:47.833Z,98.20
2019-05-23T08:16:18.586Z,97.80
2019-05-23T08:18:49.014Z,98.40
2019-05-23T08:21:22.180Z,98.60
2019-05-23T08:23:52.526Z,98.20
2019-05-23T08:26:24.520Z,97.90
2019-05-23T08:29:23.778Z,98.20
2019-05-23T08:31:27.954Z,98.70
2019-05-23T08:33:59.391Z,98.00
2019-05-23T08:36:30.501Z,98.20
2019-05-23T08:39:01.684Z,97.80
2019-05-23T08:41:32.483Z,97.90
2019-05-23T08:44:03.418Z,97.70
2019-05-23T08:46:34.593Z,97.30
2019-05-23T08:49:06.023Z,97.80
2019-05-23T08:51:36.746Z,97.00
2019-05-23T08:54:07.525Z,97.10
2019-05-23T08:56:38.511Z,97.00
2019-05-23T08:59:10.728Z,96.50
2019-05-23T09:01:41.261Z,96.40
2019-05-23T09:04:11.979Z,96.00
2019-05-23T09:06:42.758Z,96.10
2019-05-23T09:09:28.582Z,96.00
2019-05-23T09:11:46.533Z,95.90
2019-05-23T09:14:17.875Z,95.20
2019-05-23T09:16:47.964Z,95.30
2019-05-23T09:19:18.439Z,95.40
2019-05-23T09:21:49.013Z,94.00
2019-05-23T09:24:19.608Z,93.30
2019-05-23T09:26:50.528Z,91.40
2019-05-23T09:29:20.912Z,91.90
2019-05-23T09:31:51.349Z,92.10
2019-05-23T09:34:21.848Z,92.10
2019-05-23T09:36:52.517Z,90.10
2019-05-23T09:39:24.527Z,89.90
2019-05-23T09:41:54.881Z,88.00
2019-05-23T09:44:25.213Z,86.70
2019-05-23T09:46:55.515Z,87.40
2019-05-23T09:49:26.017Z,85.40
2019-05-23T09:52:00.991Z,84.80
2019-05-23T09:54:28.586Z,82.80
2019-05-23T09:56:59.189Z,83.40
2019-05-23T09:59:29.930Z,78.90
2019-05-23T10:02:02.136Z,80.30
2019-05-23T10:04:32.693Z,79.70
2019-05-23T10:07:54.557Z,80.50
2019-05-23T10:10:25.340Z,82.40
2019-05-23T10:12:55.671Z,79.80
2019-05-23T10:15:38.510Z,82.10
2019-05-23T10:18:11.223Z,81.20
2019-05-23T10:20:42.217Z,80.70
2019-05-23T10:23:12.609Z,82.10
2019-05-23T10:25:42.942Z,80.00
2019-05-23T10:28:13.444Z,77.90
2019-05-23T10:30:43.981Z,74.70
2019-05-23T10:33:14.623Z,72.50
2019-05-23T10:35:58.880Z,71.30
2019-05-23T10:38:17.011Z,72.70
2019-05-23T10:40:47.543Z,70.90
2019-05-23T10:43:17.921Z,71.70
2019-05-23T10:45:48.943Z,71.40
2019-05-23T10:48:21.035Z,71.20
2019-05-23T10:50:52.251Z,70.70
2019-05-23T10:53:22.849Z,71.10
2019-05-23T10:55:53.521Z,74.00
2019-05-23T10:58:24.666Z,71.60
2019-05-23T11:00:55.867Z,71.60
2019-05-23T11:03:26.806Z,70.20
2019-05-23T11:05:57.199Z,72.60
2019-05-23T11:08:30.017Z,71.10
2019-05-23T11:10:59.913Z,71.70
2019-05-23T11:13:30.489Z,68.10
2019-05-23T11:16:01.150Z,66.90
2019-05-23T11:18:31.807Z,66.80
2019-05-23T11:21:03.275Z,65.50
2019-05-23T11:23:41.523Z,63.80
2019-05-23T11:26:17.896Z,62.80
2019-05-23T11:29:00.111Z,62.10
2019-05-23T11:31:32.467Z,62.90
2019-05-23T11:34:07.639Z,64.40
2019-05-23T11:36:45.901Z,65.00
2019-05-23T11:39:25.350Z,65.00
2019-05-23T11:42:00.331Z,66.30
2019-05-23T11:44:32.232Z,66.10
2019-05-23T11:47:07.823Z,65.40
2019-05-23T11:49:42.944Z,64.40
2019-05-23T11:52:15.735Z,59.90
2019-05-23T11:54:48.794Z,58.00
2019-05-23T11:57:21.172Z,58.20
2019-05-23T11:59:53.597Z,58.20
2019-05-23T12:02:35.922Z,57.70
2019-05-23T12:05:19.462Z,59.10
2019-05-23T12:07:51.272Z,58.20
2019-05-23T12:10:23.378Z,58.50
2019-05-23T12:12:55.298Z,57.40
2019-05-23T12:15:29.872Z,58.70
2019-05-23T12:18:01.113Z,57.50
2019-05-23T12:20:33.037Z,57.70
2019-05-23T12:23:10.481Z,57.70
2019-05-23T12:25:38.215Z,58.00
2019-05-23T12:28:11.181Z,57.50
2019-05-23T12:30:42.723Z,59.00
2019-05-23T12:33:14.480Z,58.40
2019-05-23T12:35:45.760Z,58.10
2019-05-23T12:38:17.934Z,56.10
2019-05-23T12:40:48.277Z,57.70
2019-05-23T12:43:18.742Z,57.90
2019-05-23T12:45:49.190Z,57.90
2019-05-23T12:48:29.184Z,58.30
2019-05-23T12:51:00.103Z,57.50
2019-05-23T12:53:30.489Z,59.10
2019-05-23T12:56:03.769Z,60.00
2019-05-23T12:58:37.528Z,59.70
2019-05-23T13:01:12.002Z,57.70
2019-05-23T13:03:45.249Z,57.30
2019-05-23T13:06:16.789Z,58.80
2019-05-23T13:08:49.445Z,58.60
2019-05-23T13:11:22.276Z,57.20
2019-05-23T13:13:53.142Z,57.70
2019-05-23T13:16:23.323Z,57.50
2019-05-23T13:18:53.630Z,56.90
2019-05-23T13:21:23.950Z,57.60
2019-05-23T13:23:54.281Z,56.40
2019-05-23T13:26:24.661Z,55.80
2019-05-23T13:28:55.060Z,56.90
2019-05-23T13:31:25.535Z,56.40
2019-05-23T13:33:55.982Z,57.00
2019-05-23T13:36:26.391Z,56.40
2019-05-23T13:38:57.494Z,56.80
2019-05-23T13:41:27.843Z,56.60
2019-05-23T13:43:58.409Z,56.90
2019-05-23T13:46:28.987Z,58.40
2019-05-23T13:48:59.597Z,57.90
2019-05-23T13:51:30.200Z,59.00
2019-05-23T13:54:00.625Z,59.80
2019-05-23T13:56:31.102Z,58.50
2019-05-23T13:59:01.434Z,57.80
2019-05-23T14:01:33.411Z,58.00
2019-05-23T14:04:03.752Z,57.90
2019-05-23T14:06:34.042Z,58.10
2019-05-23T14:09:05.161Z,57.10
2019-05-23T14:11:35.665Z,55.90
2019-05-23T14:14:06.710Z,55.60
2019-05-23T14:16:49.737Z,55.00
2019-05-23T14:19:20.194Z,54.70
2019-05-23T14:21:50.582Z,53.40
2019-05-23T14:24:20.905Z,54.50
2019-05-23T14:26:58.034Z,54.20
2019-05-23T14:29:28.357Z,51.80
2019-05-23T14:32:14.151Z,51.90
2019-05-23T14:34:44.473Z,52.80
2019-05-23T14:37:26.194Z,53.10
2019-05-23T14:39:59.718Z,53.40
2019-05-23T14:42:37.309Z,53.60
2019-05-23T14:45:21.437Z,53.10
2019-05-23T14:48:00.767Z,52.70
2019-05-23T14:50:43.320Z,53.30
2019-05-23T14:53:14.942Z,52.80
2019-05-23T14:55:45.267Z,53.70
2019-05-23T14:58:15.947Z,53.70
2019-05-23T15:00:48.415Z,54.90
2019-05-23T15:03:19.043Z,54.80
2019-05-23T15:05:50.606Z,54.10
2019-05-23T15:08:21.388Z,54.50
2019-05-23T15:10:51.418Z,55.50
2019-05-23T15:13:21.709Z,55.20
2019-05-23T15:15:52.042Z,55.50
2019-05-23T15:18:22.380Z,54.80
2019-05-23T15:20:52.779Z,55.30
2019-05-23T15:23:23.162Z,55.50
2019-05-23T15:25:53.615Z,54.80
2019-05-23T15:28:24.257Z,55.10
2019-05-23T15:30:54.687Z,55.30
2019-05-23T15:33:24.989Z,54.90
2019-05-23T15:35:55.326Z,53.70
2019-05-23T15:38:25.674Z,52.80
2019-05-23T15:40:56.459Z,54.10
2019-05-23T15:43:26.899Z,54.80
2019-05-23T15:45:57.294Z,54.80
2019-05-23T15:48:27.605Z,55.80
2019-05-23T15:50:57.905Z,55.80
2019-05-23T15:53:59.491Z,55.30
2019-05-23T15:56:50.691Z,55.10
2019-05-23T15:59:28.809Z,53.70
2019-05-23T16:02:06.611Z,53.70
2019-05-23T16:04:37.290Z,53.50
2019-05-23T16:07:09.744Z,54.90
2019-05-23T16:09:40.585Z,53.30
2019-05-23T16:12:13.148Z,53.40
2019-05-23T16:14:43.720Z,52.90
2019-05-23T16:17:14.013Z,52.70
2019-05-23T16:19:44.498Z,52.60
2019-05-23T16:22:14.768Z,51.70
2019-05-23T16:24:45.325Z,52.30
2019-05-23T16:27:15.639Z,52.70
2019-05-23T16:29:46.121Z,52.90
2019-05-23T16:32:16.552Z,53.50
2019-05-23T16:34:47.221Z,53.60
2019-05-23T16:37:17.539Z,53.50
2019-05-23T16:39:49.865Z,52.90
2019-05-23T16:42:20.161Z,53.10
2019-05-23T16:44:50.560Z,53.20
2019-05-23T16:47:21.358Z,52.50
2019-05-23T16:49:54.545Z,53.90
2019-05-23T16:52:26.019Z,53.90
2019-05-23T16:54:57.797Z,53.40
2019-05-23T16:57:35.288Z,53.20
2019-05-23T17:00:26.791Z,53.80
2019-05-23T17:03:34.769Z,54.50
2019-05-23T17:06:30.494Z,53.50
2019-05-23T17:09:23.427Z,52.80
2019-05-23T17:12:12.787Z,52.20
2019-05-23T17:14:56.986Z,52.30
2019-05-23T17:18:02.305Z,53.00
2019-05-23T17:20:40.223Z,52.90
2019-05-23T17:23:29.505Z,52.80
2019-05-23T17:26:09.468Z,51.80
2019-05-23T17:28:44.824Z,51.60
2019-05-23T17:31:18.125Z,52.10
2019-05-23T17:33:49.342Z,52.10
2019-05-23T17:36:19.951Z,51.70
2019-05-23T17:38:50.382Z,50.80
2019-05-23T17:41:20.924Z,53.70
2019-05-23T17:43:51.526Z,52.90
2019-05-23T17:46:21.999Z,52.00
2019-05-23T17:48:52.380Z,50.90
2019-05-23T17:51:22.765Z,50.30
2019-05-23T17:53:53.153Z,50.30
2019-05-23T17:56:23.897Z,50.70
2019-05-23T17:58:54.141Z,51.00
2019-05-23T18:01:25.431Z,50.80
2019-05-23T18:03:55.849Z,50.80
2019-05-23T18:06:26.436Z,50.10
2019-05-23T18:08:56.969Z,50.10
2019-05-23T18:11:27.941Z,49.80
2019-05-23T18:13:58.920Z,49.80
2019-05-23T18:16:29.394Z,50.00
2019-05-23T18:18:59.732Z,50.90
2019-05-23T18:21:30.319Z,51.10
2019-05-23T18:24:00.716Z,51.80
2019-05-23T18:26:31.182Z,52.30
2019-05-23T18:29:01.733Z,52.00
2019-05-23T18:31:34.199Z,52.80
2019-05-23T18:34:05.231Z,53.20
2019-05-23T18:36:35.760Z,53.10
2019-05-23T18:39:09.709Z,53.60
2019-05-23T18:41:40.898Z,54.00
2019-05-23T18:44:11.326Z,54.30
2019-05-23T18:46:45.097Z,54.80
2019-05-23T18:49:15.522Z,55.10
2019-05-23T18:51:45.948Z,55.20
2019-05-23T18:54:16.535Z,56.40
2019-05-23T18:56:46.955Z,56.10
2019-05-23T18:59:18.090Z,56.60
2019-05-23T19:01:48.508Z,56.80
2019-05-23T19:04:18.810Z,57.00
2019-05-23T19:06:50.664Z,57.40
2019-05-23T19:09:21.797Z,57.50
2019-05-23T19:11:52.293Z,57.80
2019-05-23T19:14:23.332Z,58.20
2019-05-23T19:16:53.901Z,58.50
2019-05-23T19:19:24.506Z,58.70
2019-05-23T19:21:55.039Z,58.90
2019-05-23T19:24:26.233Z,59.20
2019-05-23T19:26:56.565Z,59.40
2019-05-23T19:29:27.865Z,59.80
2019-05-23T19:31:58.715Z,60.20
2019-05-23T19:34:29.180Z,60.40
2019-05-23T19:36:59.580Z,60.80
2019-05-23T19:39:29.996Z,60.80
2019-05-23T19:42:00.357Z,61.00
2019-05-23T19:44:30.678Z,61.20
2019-05-23T19:47:01.035Z,61.40
2019-05-23T19:49:31.342Z,62.00
2019-05-23T19:52:01.734Z,62.00
2019-05-23T19:54:32.327Z,62.10
2019-05-23T19:57:05.794Z,62.40
2019-05-23T19:59:36.095Z,62.90
2019-05-23T20:02:17.473Z,63.10
2019-05-23T20:04:55.786Z,63.80
2019-05-23T20:07:26.307Z,64.50
2019-05-23T20:09:57.573Z,65.00
2019-05-23T20:12:28.603Z,65.30
2019-05-23T20:14:58.905Z,65.40
2019-05-23T20:17:29.413Z,65.50
2019-05-23T20:19:59.833Z,65.60
2019-05-23T20:22:30.306Z,65.60
2019-05-23T20:25:00.618Z,65.60
2019-05-23T20:27:31.005Z,65.60
2019-05-23T20:30:01.311Z,65.80
2019-05-23T20:32:31.612Z,66.20
2019-05-23T20:35:03.632Z,66.40
2019-05-23T20:37:35.894Z,66.80
2019-05-23T20:40:09.849Z,67.40
2019-05-23T20:42:40.481Z,67.40
2019-05-23T20:45:10.821Z,67.70
2019-05-23T20:47:41.286Z,67.50
2019-05-23T20:50:11.815Z,67.60
2019-05-23T20:52:42.854Z,67.70
2019-05-23T20:55:16.268Z,67.80
2019-05-23T20:57:47.487Z,67.90
2019-05-23T21:00:26.273Z,68.30
2019-05-23T21:02:56.543Z,68.50
2019-05-23T21:05:29.264Z,69.10
2019-05-23T21:08:02.014Z,69.50
2019-05-23T21:10:47.192Z,70.40
2019-05-23T21:13:18.093Z,69.80
2019-05-23T21:15:49.019Z,69.90
2019-05-23T21:18:19.656Z,70.00
2019-05-23T21:20:50.643Z,70.30
2019-05-23T21:23:21.554Z,70.20
2019-05-23T21:25:56.654Z,70.40
2019-05-23T21:28:29.266Z,70.40
2019-05-23T21:30:59.899Z,70.60
2019-05-23T21:33:30.339Z,70.90
2019-05-23T21:36:00.975Z,71.10
2019-05-23T21:38:31.520Z,71.50
2019-05-23T21:41:03.459Z,71.80
2019-05-23T21:43:38.872Z,72.10
2019-05-23T21:46:09.327Z,72.30
2019-05-23T21:48:42.353Z,72.80
2019-05-23T21:51:13.270Z,73.30
2019-05-23T21:53:43.773Z,73.80
2019-05-23T21:56:14.305Z,74.40
2019-05-23T21:58:44.701Z,74.80
2019-05-23T22:02:00.602Z,75.40
2019-05-23T22:04:56.364Z,76.00
2019-05-23T22:07:27.401Z,76.50
2019-05-23T22:09:57.850Z,77.20
2019-05-23T22:12:29.809Z,77.60
2019-05-23T22:15:01.252Z,78.00
2019-05-23T22:17:32.173Z,78.70
2019-05-23T22:20:02.751Z,79.10
2019-05-23T22:22:35.740Z,79.70
2019-05-23T22:25:07.858Z,80.20
2019-05-23T22:27:41.796Z,80.60
2019-05-23T22:30:14.819Z,80.60
2019-05-23T22:32:49.808Z,81.00
2019-05-23T22:35:20.929Z,81.40
2019-05-23T22:37:51.389Z,81.70
2019-05-23T22:40:22.583Z,82.40
2019-05-23T22:42:53.350Z,82.90
2019-05-23T22:45:26.118Z,83.30
2019-05-23T22:47:56.509Z,83.40
2019-05-23T22:50:26.940Z,83.80
2019-05-23T22:52:57.314Z,84.30
2019-05-23T22:55:28.026Z,84.70
2019-05-23T22:57:58.406Z,85.00
2019-05-23T23:00:33.372Z,85.50
2019-05-23T23:03:03.707Z,85.80
2019-05-23T23:05:34.325Z,86.20
2019-05-23T23:08:04.639Z,86.60
2019-05-23T23:10:35.022Z,86.90
2019-05-23T23:13:05.352Z,87.20
2019-05-23T23:15:35.852Z,87.40
2019-05-23T23:18:06.993Z,87.70
2019-05-23T23:20:37.329Z,88.70
2019-05-23T23:23:07.666Z,87.90
2019-05-23T23:25:38.349Z,88.10
2019-05-23T23:28:08.667Z,88.80
2019-05-23T23:30:41.281Z,88.70
2019-05-23T23:33:12.186Z,88.80
2019-05-23T23:35:42.513Z,89.20
2019-05-23T23:38:12.896Z,89.70
2019-05-23T23:40:43.258Z,89.80
2019-05-23T23:43:13.653Z,89.80
2019-05-23T23:46:02.857Z,90.10
2019-05-23T23:48:51.258Z,90.20
2019-05-23T23:51:39.967Z,90.40
2019-05-23T23:54:28.334Z,90.80
2019-05-23T23:57:16.889Z,90.80
2019-05-23T23:59:46.463Z,91.80
